createdAt,value
2019-02-15T00:01:59.172Z,5.30
2019-02-15T00:04:30.218Z,5.40
2019-02-15T00:07:01.222Z,5.47
2019-02-15T00:09:32.263Z,4.90
2019-02-15T00:12:03.340Z,5.35
2019-02-15T00:14:49.186Z,5.15
2019-02-15T00:17:21.877Z,5.05
2019-02-15T00:19:54.420Z,3.87
2019-02-15T00:22:25.423Z,4.35
2019-02-15T00:24:56.488Z,4.83
2019-02-15T00:27:27.622Z,5.55
2019-02-15T00:29:58.706Z,4.75
2019-02-15T00:32:29.791Z,4.85
2019-02-15T00:35:00.856Z,5.75
2019-02-15T00:37:31.904Z,5.90
2019-02-15T00:40:02.987Z,5.22
2019-02-15T00:42:34.020Z,4.72
2019-02-15T00:45:06.604Z,4.78
2019-02-15T00:47:39.214Z,6.05
2019-02-15T00:50:26.652Z,4.87
2019-02-15T00:53:08.359Z,5.47
2019-02-15T00:55:40.998Z,4.80
2019-02-15T00:58:19.635Z,5.62
2019-02-15T01:00:59.408Z,5.12
2019-02-15T01:03:40.636Z,4.50
2019-02-15T01:06:16.002Z,3.95
2019-02-15T01:08:54.695Z,5.10
2019-02-15T01:11:27.343Z,4.20
2019-02-15T01:13:58.383Z,4.72
2019-02-15T01:16:29.502Z,3.92
2019-02-15T01:19:00.578Z,4.05
2019-02-15T01:21:31.620Z,3.80
2019-02-15T01:24:02.697Z,4.12
2019-02-15T01:26:35.409Z,3.75
2019-02-15T01:29:24.120Z,4.08
2019-02-15T01:31:56.733Z,4.15
2019-02-15T01:34:41.145Z,4.05
2019-02-15T01:37:19.845Z,4.00
2019-02-15T01:40:07.543Z,3.72
2019-02-15T01:42:46.206Z,3.85
2019-02-15T01:45:18.848Z,3.75
2019-02-15T01:47:49.849Z,4.28
2019-02-15T01:50:20.852Z,3.87
2019-02-15T01:52:51.895Z,4.45
2019-02-15T01:55:22.961Z,3.80
2019-02-15T01:57:54.007Z,3.45
2019-02-15T02:00:26.646Z,3.80
2019-02-15T02:02:57.694Z,3.15
2019-02-15T02:05:28.765Z,3.30
2019-02-15T02:07:59.908Z,3.90
2019-02-15T02:10:30.974Z,3.80
2019-02-15T02:13:02.040Z,3.50
2019-02-15T02:15:33.048Z,3.58
2019-02-15T02:18:04.086Z,4.70
2019-02-15T02:20:35.161Z,3.47
2019-02-15T02:23:06.198Z,3.67
2019-02-15T02:25:37.274Z,4.20
2019-02-15T02:28:08.395Z,3.80
2019-02-15T02:30:39.477Z,3.02
2019-02-15T02:33:10.544Z,4.03
2019-02-15T02:35:41.656Z,3.27
2019-02-15T02:38:12.732Z,4.05
2019-02-15T02:40:43.860Z,3.00
2019-02-15T02:43:14.925Z,4.72
2019-02-15T02:45:45.977Z,3.17
2019-02-15T02:48:17.065Z,3.72
2019-02-15T02:50:48.107Z,3.12
2019-02-15T02:53:19.179Z,3.40
2019-02-15T02:55:50.224Z,2.90
2019-02-15T02:58:21.301Z,3.85
2019-02-15T03:00:52.355Z,3.27
2019-02-15T03:03:23.429Z,3.60
2019-02-15T03:05:54.476Z,3.70
2019-02-15T03:08:25.549Z,3.77
2019-02-15T03:10:56.617Z,3.05
2019-02-15T03:13:27.677Z,3.40
2019-02-15T03:15:58.717Z,3.15
2019-02-15T03:18:29.798Z,3.75
2019-02-15T03:21:00.838Z,4.67
2019-02-15T03:23:31.959Z,2.70
2019-02-15T03:26:03.044Z,3.65
2019-02-15T03:28:35.119Z,3.50
2019-02-15T03:31:06.194Z,3.35
2019-02-15T03:33:38.818Z,2.50
2019-02-15T03:36:11.526Z,3.52
2019-02-15T03:38:44.165Z,3.25
2019-02-15T03:41:19.804Z,3.20
2019-02-15T03:43:50.800Z,3.15
2019-02-15T03:46:21.839Z,3.27
2019-02-15T03:48:52.904Z,3.25
2019-02-15T03:51:23.982Z,3.47
2019-02-15T03:53:55.023Z,4.22
2019-02-15T03:56:26.113Z,4.45
2019-02-15T03:58:57.136Z,3.30
2019-02-15T04:01:28.146Z,4.35
2019-02-15T04:03:59.206Z,5.05
2019-02-15T04:06:30.348Z,5.97
2019-02-15T04:09:01.457Z,5.83
2019-02-15T04:11:33.929Z,5.83
2019-02-15T04:14:04.964Z,7.30
2019-02-15T04:16:36.086Z,7.15
2019-02-15T04:19:07.212Z,8.13
2019-02-15T04:21:38.278Z,7.33
2019-02-15T04:24:09.325Z,7.70
2019-02-15T04:26:40.399Z,7.83
2019-02-15T04:29:11.461Z,8.85
2019-02-15T04:31:42.594Z,11.03
2019-02-15T04:34:13.641Z,10.72
2019-02-15T04:36:44.742Z,10.90
2019-02-15T04:39:15.892Z,10.72
2019-02-15T04:41:47.001Z,11.43
2019-02-15T04:44:18.134Z,9.15
2019-02-15T04:46:50.167Z,12.70
2019-02-15T04:49:21.348Z,13.03
2019-02-15T04:51:52.474Z,15.18
2019-02-15T04:54:23.562Z,15.75
2019-02-15T04:56:54.546Z,14.30
2019-02-15T04:59:25.628Z,14.33
2019-02-15T05:01:56.704Z,12.60
2019-02-15T05:04:27.793Z,13.68
2019-02-15T05:06:58.849Z,13.00
2019-02-15T05:09:29.932Z,13.40
2019-02-15T05:12:00.983Z,12.70
2019-02-15T05:14:32.067Z,13.03
2019-02-15T05:17:03.055Z,14.18
2019-02-15T05:19:34.143Z,12.78
2019-02-15T05:22:05.192Z,13.70
2019-02-15T05:24:36.291Z,12.58
2019-02-15T05:27:07.363Z,11.57
2019-02-15T05:29:38.444Z,11.65
2019-02-15T05:32:10.218Z,10.85
2019-02-15T05:34:41.298Z,11.45
2019-02-15T05:37:12.392Z,10.10
2019-02-15T05:39:43.381Z,10.85
2019-02-15T05:42:14.452Z,10.35
2019-02-15T05:44:45.510Z,8.73
2019-02-15T05:47:16.695Z,10.20
2019-02-15T05:49:47.773Z,9.83
2019-02-15T05:52:18.823Z,9.78
2019-02-15T05:54:49.894Z,9.75
2019-02-15T05:57:20.966Z,8.93
2019-02-15T05:59:52.011Z,8.80
2019-02-15T06:02:23.090Z,8.93
2019-02-15T06:04:54.147Z,8.83
2019-02-15T06:07:25.308Z,10.03
2019-02-15T06:09:56.416Z,10.20
2019-02-15T06:12:27.492Z,9.38
2019-02-15T06:14:58.457Z,9.23
2019-02-15T06:17:29.537Z,9.75
2019-02-15T06:20:00.578Z,8.23
2019-02-15T06:22:31.649Z,9.73
2019-02-15T06:25:02.676Z,8.30
2019-02-15T06:27:33.752Z,10.28
2019-02-15T06:30:05.597Z,8.98
2019-02-15T06:32:36.678Z,8.15
2019-02-15T06:35:07.713Z,8.65
2019-02-15T06:37:38.781Z,9.05
2019-02-15T06:40:09.830Z,11.12
2019-02-15T06:42:40.921Z,11.30
2019-02-15T06:45:12.042Z,12.30
2019-02-15T06:47:43.102Z,10.45
2019-02-15T06:50:14.170Z,9.03
2019-02-15T06:52:45.210Z,8.95
2019-02-15T06:55:16.428Z,8.53
2019-02-15T06:57:47.517Z,7.95
2019-02-15T07:00:20.165Z,7.22
2019-02-15T07:02:55.424Z,7.17
2019-02-15T07:05:26.201Z,7.40
2019-02-15T07:07:57.242Z,7.83
2019-02-15T07:10:28.323Z,6.03
2019-02-15T07:12:59.372Z,7.45
2019-02-15T07:15:33.673Z,7.22
2019-02-15T07:18:03.155Z,6.97
2019-02-15T07:20:34.230Z,9.60
2019-02-15T07:23:05.270Z,9.35
2019-02-15T07:25:36.284Z,8.15
2019-02-15T07:28:07.341Z,10.48
2019-02-15T07:30:38.409Z,9.25
2019-02-15T07:33:09.551Z,10.30
2019-02-15T07:35:40.675Z,10.65
2019-02-15T07:38:11.756Z,10.78
2019-02-15T07:40:42.813Z,11.75
2019-02-15T07:43:13.829Z,13.72
2019-02-15T07:45:44.919Z,14.33
2019-02-15T07:48:15.968Z,13.00
2019-02-15T07:50:47.028Z,15.05
2019-02-15T07:53:18.084Z,14.35
2019-02-15T07:55:49.181Z,14.63
2019-02-15T07:58:20.246Z,14.63
2019-02-15T08:00:51.330Z,14.78
2019-02-15T08:03:22.381Z,11.97
2019-02-15T08:05:53.513Z,12.33
2019-02-15T08:08:24.609Z,11.55
2019-02-15T08:10:55.756Z,10.20
2019-02-15T08:13:26.904Z,10.38
2019-02-15T08:15:58.074Z,8.90
2019-02-15T08:18:29.157Z,8.23
2019-02-15T08:21:00.275Z,7.55
2019-02-15T08:23:31.404Z,7.50
2019-02-15T08:26:02.555Z,7.62
2019-02-15T08:28:33.886Z,8.15
2019-02-15T08:31:05.020Z,7.50
2019-02-15T08:33:36.110Z,7.22
2019-02-15T08:36:07.208Z,6.17
2019-02-15T08:38:38.328Z,6.55
2019-02-15T08:41:10.928Z,6.25
2019-02-15T08:43:41.981Z,6.35
2019-02-15T08:46:12.999Z,5.65
2019-02-15T08:48:46.491Z,6.92
2019-02-15T08:51:17.052Z,5.67
2019-02-15T08:53:50.306Z,5.87
2019-02-15T08:56:20.845Z,5.25
2019-02-15T08:58:51.910Z,5.62
2019-02-15T09:01:22.942Z,8.35
2019-02-15T09:03:53.995Z,5.28
2019-02-15T09:06:25.024Z,5.62
2019-02-15T09:08:56.076Z,6.00
2019-02-15T09:11:27.108Z,5.00
2019-02-15T09:13:58.169Z,5.50
2019-02-15T09:16:29.276Z,6.62
2019-02-15T09:19:00.257Z,6.08
2019-02-15T09:21:31.288Z,6.60
2019-02-15T09:24:02.355Z,5.15
2019-02-15T09:26:33.388Z,6.12
2019-02-15T09:29:05.724Z,5.53
2019-02-15T09:31:36.787Z,9.55
2019-02-15T09:34:07.752Z,6.50
2019-02-15T09:36:38.892Z,5.25
2019-02-15T09:39:09.914Z,4.28
2019-02-15T09:41:41.078Z,4.75
2019-02-15T09:44:12.099Z,4.58
2019-02-15T09:46:43.155Z,4.45
2019-02-15T09:49:14.178Z,4.50
2019-02-15T09:51:45.261Z,4.12
2019-02-15T09:54:16.288Z,5.28
2019-02-15T09:56:47.539Z,4.70
2019-02-15T09:59:18.568Z,4.78
2019-02-15T10:01:49.613Z,4.10
2019-02-15T10:04:20.635Z,4.50
2019-02-15T10:06:51.723Z,3.75
2019-02-15T10:09:22.748Z,3.65
2019-02-15T10:11:53.804Z,3.37
2019-02-15T10:14:24.826Z,4.10
2019-02-15T10:16:55.808Z,4.17
2019-02-15T10:19:26.881Z,4.37
2019-02-15T10:21:57.905Z,3.37
2019-02-15T10:24:28.964Z,4.65
2019-02-15T10:26:59.983Z,4.08
2019-02-15T10:29:31.158Z,4.80
2019-02-15T10:32:02.303Z,4.75
2019-02-15T10:34:33.363Z,6.62
2019-02-15T10:37:04.392Z,3.90
2019-02-15T10:39:35.464Z,4.95
2019-02-15T10:42:06.606Z,4.15
2019-02-15T10:44:37.693Z,3.67
2019-02-15T10:47:14.358Z,5.08
2019-02-15T10:49:41.515Z,5.95
2019-02-15T10:52:12.531Z,4.20
2019-02-15T10:54:43.575Z,3.33
2019-02-15T10:57:14.767Z,4.33
2019-02-15T10:59:45.916Z,4.10
2019-02-15T11:02:16.926Z,3.40
2019-02-15T11:04:48.081Z,4.73
2019-02-15T11:07:19.158Z,3.03
2019-02-15T11:09:50.217Z,3.37
2019-02-15T11:12:21.219Z,3.00
2019-02-15T11:14:52.259Z,2.93
2019-02-15T11:17:23.294Z,3.27
2019-02-15T11:19:54.304Z,3.30
2019-02-15T11:22:25.352Z,3.30
2019-02-15T11:24:56.358Z,3.70
2019-02-15T11:27:27.388Z,6.43
2019-02-15T11:29:58.401Z,3.13
2019-02-15T11:32:29.430Z,4.10
2019-02-15T11:35:00.468Z,3.47
2019-02-15T11:37:31.556Z,2.80
2019-02-15T11:40:02.571Z,2.90
2019-02-15T11:42:33.614Z,2.20
2019-02-15T11:45:06.516Z,2.50
2019-02-15T11:47:37.489Z,2.30
2019-02-15T11:50:12.117Z,2.73
2019-02-15T11:52:43.360Z,2.77
2019-02-15T11:55:14.367Z,4.57
2019-02-15T11:57:45.407Z,2.87
2019-02-15T12:00:28.261Z,3.60
2019-02-15T12:02:59.298Z,3.83
2019-02-15T12:05:30.304Z,2.97
2019-02-15T12:08:01.347Z,2.50
2019-02-15T12:10:32.355Z,2.90
2019-02-15T12:13:03.389Z,2.60
2019-02-15T12:15:34.422Z,2.33
2019-02-15T12:18:06.065Z,1.83
2019-02-15T12:20:37.088Z,2.30
2019-02-15T12:23:08.104Z,2.67
2019-02-15T12:25:39.143Z,1.70
2019-02-15T12:28:10.150Z,1.93
2019-02-15T12:30:41.191Z,2.13
2019-02-15T12:33:12.197Z,4.77
2019-02-15T12:35:43.231Z,2.80
2019-02-15T12:38:14.172Z,1.93
2019-02-15T12:40:45.141Z,1.90
2019-02-15T12:43:16.154Z,1.50
2019-02-15T12:45:47.197Z,1.67
2019-02-15T12:48:18.208Z,1.47
2019-02-15T12:50:49.297Z,1.63
2019-02-15T12:53:20.226Z,1.17
2019-02-15T12:55:51.266Z,1.27
2019-02-15T12:58:22.301Z,1.63
2019-02-15T13:00:53.301Z,1.83
2019-02-15T13:03:24.300Z,1.40
2019-02-15T13:05:55.309Z,0.80
2019-02-15T13:08:26.406Z,1.27
2019-02-15T13:10:57.406Z,1.47
2019-02-15T13:13:28.445Z,1.10
2019-02-15T13:15:59.449Z,1.07
2019-02-15T13:18:30.480Z,1.30
2019-02-15T13:21:01.491Z,1.40
2019-02-15T13:23:32.524Z,1.33
2019-02-15T13:26:08.642Z,1.40
2019-02-15T13:28:37.201Z,1.30
2019-02-15T13:31:08.208Z,1.30
2019-02-15T13:33:39.248Z,1.17
2019-02-15T13:36:10.285Z,1.60
2019-02-15T13:38:41.321Z,1.20
2019-02-15T13:41:12.263Z,1.10
2019-02-15T13:43:43.300Z,1.33
2019-02-15T13:46:14.307Z,1.47
2019-02-15T13:48:45.231Z,1.00
2019-02-15T13:51:16.212Z,1.40
2019-02-15T13:53:47.267Z,1.10
2019-02-15T13:56:18.300Z,1.10
2019-02-15T13:58:49.234Z,1.07
2019-02-15T14:01:20.494Z,1.10
2019-02-15T14:03:51.445Z,1.00
2019-02-15T14:06:22.480Z,1.00
2019-02-15T14:08:53.477Z,1.00
2019-02-15T14:11:24.544Z,1.30
2019-02-15T14:13:55.610Z,1.20
2019-02-15T14:16:26.648Z,1.03
2019-02-15T14:18:57.658Z,1.50
2019-02-15T14:21:28.691Z,1.00
2019-02-15T14:23:59.678Z,1.70
2019-02-15T14:26:30.707Z,1.83
2019-02-15T14:29:01.726Z,2.00
2019-02-15T14:31:32.771Z,1.43
2019-02-15T14:34:04.774Z,2.17
2019-02-15T14:36:35.821Z,3.03
2019-02-15T14:39:09.418Z,2.40
2019-02-15T14:41:40.455Z,2.33
2019-02-15T14:44:11.455Z,2.57
2019-02-15T14:46:42.493Z,3.37
2019-02-15T14:49:13.505Z,2.80
2019-02-15T14:51:44.550Z,2.90
2019-02-15T14:54:15.629Z,2.30
2019-02-15T14:56:46.636Z,2.40
2019-02-15T14:59:17.728Z,2.77
2019-02-15T15:01:48.784Z,2.80
2019-02-15T15:04:19.826Z,2.57
2019-02-15T15:06:50.825Z,2.67
2019-02-15T15:09:21.890Z,3.20
2019-02-15T15:11:53.005Z,2.90
2019-02-15T15:14:24.117Z,3.17
2019-02-15T15:16:55.132Z,4.13
2019-02-15T15:19:26.174Z,3.63
2019-02-15T15:21:57.253Z,3.73
2019-02-15T15:24:28.583Z,3.80
2019-02-15T15:26:59.670Z,4.60
2019-02-15T15:29:30.715Z,3.57
2019-02-15T15:32:01.721Z,3.80
2019-02-15T15:34:32.767Z,3.30
2019-02-15T15:37:03.782Z,4.70
2019-02-15T15:39:34.818Z,3.57
2019-02-15T15:42:05.821Z,4.40
2019-02-15T15:44:36.864Z,4.60
2019-02-15T15:47:08.175Z,3.90
2019-02-15T15:49:39.190Z,5.07
2019-02-15T15:52:10.226Z,4.93
2019-02-15T15:54:41.235Z,4.43
2019-02-15T15:57:12.212Z,4.00
2019-02-15T15:59:43.223Z,4.63
2019-02-15T16:02:14.290Z,5.60
2019-02-15T16:04:45.518Z,4.93
2019-02-15T16:07:16.575Z,5.10
2019-02-15T16:09:47.606Z,5.92
2019-02-15T16:12:18.727Z,5.15
2019-02-15T16:14:49.812Z,5.78
2019-02-15T16:17:21.183Z,4.90
2019-02-15T16:19:52.226Z,6.75
2019-02-15T16:22:23.293Z,6.00
2019-02-15T16:24:55.332Z,5.72
2019-02-15T16:27:26.534Z,5.00
2019-02-15T16:29:57.662Z,5.62
2019-02-15T16:32:28.733Z,5.60
2019-02-15T16:34:59.784Z,5.92
2019-02-15T16:37:30.841Z,6.37
2019-02-15T16:40:01.877Z,6.00
2019-02-15T16:42:32.935Z,5.90
2019-02-15T16:45:05.285Z,6.90
2019-02-15T16:47:36.501Z,5.53
2019-02-15T16:50:09.166Z,4.90
2019-02-15T16:52:40.156Z,6.22
2019-02-15T16:55:13.159Z,6.20
2019-02-15T16:57:44.243Z,5.90
2019-02-15T17:00:16.129Z,5.10
2019-02-15T17:02:47.224Z,5.15
2019-02-15T17:05:21.159Z,5.08
2019-02-15T17:07:52.233Z,6.12
2019-02-15T17:10:23.341Z,10.53
2019-02-15T17:12:54.411Z,6.10
2019-02-15T17:15:25.596Z,7.05
2019-02-15T17:17:56.777Z,6.08
2019-02-15T17:20:27.809Z,6.80
2019-02-15T17:22:58.865Z,6.65
2019-02-15T17:25:29.925Z,7.08
2019-02-15T17:28:00.915Z,12.47
2019-02-15T17:30:31.995Z,10.50
2019-02-15T17:33:03.102Z,9.20
2019-02-15T17:35:34.162Z,7.55
2019-02-15T17:38:05.250Z,7.10
2019-02-15T17:40:36.327Z,6.00
2019-02-15T17:43:07.546Z,8.38
2019-02-15T17:45:39.633Z,7.58
2019-02-15T17:48:10.688Z,7.85
2019-02-15T17:50:41.749Z,7.87
2019-02-15T17:53:12.786Z,6.78
2019-02-15T17:55:43.842Z,6.50
2019-02-15T17:58:15.866Z,6.50
2019-02-15T18:00:46.984Z,6.80
2019-02-15T18:03:18.420Z,6.22
2019-02-15T18:05:49.541Z,7.67
2019-02-15T18:08:20.569Z,5.67
2019-02-15T18:10:51.628Z,7.28
2019-02-15T18:13:22.658Z,6.30
2019-02-15T18:15:53.724Z,7.65
2019-02-15T18:18:24.763Z,6.92
2019-02-15T18:20:55.823Z,9.08
2019-02-15T18:23:26.875Z,8.45
2019-02-15T18:25:58.035Z,8.25
2019-02-15T18:28:29.086Z,9.58
2019-02-15T18:31:00.150Z,7.25
2019-02-15T18:33:31.193Z,10.40
2019-02-15T18:36:02.314Z,11.48
2019-02-15T18:38:33.341Z,8.80
2019-02-15T18:41:13.109Z,8.83
2019-02-15T18:43:37.329Z,7.75
2019-02-15T18:46:08.465Z,7.92
2019-02-15T18:48:41.977Z,8.78
2019-02-15T18:51:13.937Z,7.75
2019-02-15T18:53:45.010Z,9.35
2019-02-15T18:56:16.023Z,12.50
2019-02-15T18:58:47.148Z,8.75
2019-02-15T19:01:18.190Z,9.25
2019-02-15T19:03:49.256Z,9.10
2019-02-15T19:06:20.400Z,8.40
2019-02-15T19:08:51.601Z,9.00
2019-02-15T19:11:24.230Z,7.75
2019-02-15T19:13:55.291Z,9.10
2019-02-15T19:16:26.360Z,8.08
2019-02-15T19:18:57.385Z,9.10
2019-02-15T19:21:28.593Z,9.03
2019-02-15T19:23:59.795Z,9.85
2019-02-15T19:26:30.925Z,9.40
2019-02-15T19:29:01.994Z,10.90
2019-02-15T19:31:33.062Z,9.13
2019-02-15T19:34:04.104Z,9.83
2019-02-15T19:36:35.176Z,12.23
2019-02-15T19:39:07.706Z,10.60
2019-02-15T19:41:38.806Z,10.43
2019-02-15T19:44:10.039Z,9.65
2019-02-15T19:46:41.276Z,10.08
2019-02-15T19:49:12.421Z,11.60
2019-02-15T19:51:43.466Z,12.90
2019-02-15T19:54:14.511Z,11.75
2019-02-15T19:56:45.596Z,14.58
2019-02-15T19:59:16.709Z,10.98
2019-02-15T20:01:51.347Z,11.85
2019-02-15T20:04:22.455Z,11.12
2019-02-15T20:06:53.594Z,12.58
2019-02-15T20:09:24.667Z,11.18
2019-02-15T20:11:55.754Z,10.75
2019-02-15T20:14:27.129Z,12.93
2019-02-15T20:16:58.391Z,13.43
2019-02-15T20:19:31.211Z,13.25
2019-02-15T20:22:02.422Z,12.18
2019-02-15T20:24:33.648Z,13.15
2019-02-15T20:27:04.708Z,10.85
2019-02-15T20:29:36.173Z,12.55
2019-02-15T20:32:08.761Z,11.20
2019-02-15T20:34:45.294Z,11.12
2019-02-15T20:37:12.730Z,12.28
2019-02-15T20:39:43.902Z,11.20
2019-02-15T20:42:15.064Z,12.28
2019-02-15T20:44:46.135Z,11.93
2019-02-15T20:47:17.675Z,11.78
2019-02-15T20:49:57.492Z,12.03
2019-02-15T20:52:22.816Z,7.92
2019-02-15T20:54:53.927Z,9.65
2019-02-15T20:57:25.056Z,10.43
2019-02-15T20:59:56.289Z,9.15
2019-02-15T21:02:27.736Z,8.15
2019-02-15T21:04:58.839Z,8.05
2019-02-15T21:07:29.953Z,9.23
2019-02-15T21:10:01.026Z,9.85
2019-02-15T21:12:32.398Z,8.40
2019-02-15T21:15:03.715Z,10.23
2019-02-15T21:17:34.942Z,9.75
2019-02-15T21:20:11.925Z,10.55
2019-02-15T21:22:43.017Z,11.88
2019-02-15T21:25:16.918Z,13.90
2019-02-15T21:27:48.009Z,14.50
2019-02-15T21:30:20.591Z,13.93
2019-02-15T21:32:51.675Z,13.65
2019-02-15T21:35:22.828Z,13.40
2019-02-15T21:37:53.876Z,13.60
2019-02-15T21:40:24.973Z,15.70
2019-02-15T21:42:56.137Z,16.17
2019-02-15T21:45:27.189Z,15.40
2019-02-15T21:47:58.422Z,18.60
2019-02-15T21:50:29.601Z,19.85
2019-02-15T21:53:00.657Z,19.52
2019-02-15T21:55:33.204Z,19.35
2019-02-15T21:58:04.299Z,18.90
2019-02-15T22:00:35.702Z,18.10
2019-02-15T22:03:08.352Z,18.85
2019-02-15T22:05:39.444Z,18.80
2019-02-15T22:08:10.604Z,20.57
2019-02-15T22:10:41.684Z,20.30
2019-02-15T22:13:12.759Z,20.45
2019-02-15T22:15:43.850Z,18.85
2019-02-15T22:18:14.940Z,20.25
2019-02-15T22:20:45.990Z,22.73
2019-02-15T22:23:17.098Z,19.70
2019-02-15T22:25:48.181Z,18.87
2019-02-15T22:28:19.358Z,19.50
2019-02-15T22:30:50.454Z,17.45
2019-02-15T22:33:21.579Z,17.95
2019-02-15T22:35:52.792Z,18.07
2019-02-15T22:38:23.863Z,18.10
2019-02-15T22:41:05.272Z,19.82
2019-02-15T22:43:36.352Z,17.92
2019-02-15T22:46:07.404Z,17.00
2019-02-15T22:48:38.492Z,15.93
2019-02-15T22:51:09.510Z,17.02
2019-02-15T22:53:40.567Z,16.20
2019-02-15T22:56:11.656Z,17.15
2019-02-15T22:58:42.736Z,17.70
2019-02-15T23:01:16.215Z,16.65
2019-02-15T23:03:48.311Z,16.95
2019-02-15T23:06:19.403Z,14.63
2019-02-15T23:08:51.492Z,16.17
2019-02-15T23:11:22.776Z,19.30
2019-02-15T23:13:53.861Z,16.10
2019-02-15T23:16:24.849Z,19.92
2019-02-15T23:18:56.030Z,20.15
2019-02-15T23:21:27.110Z,20.25
2019-02-15T23:23:58.174Z,21.10
2019-02-15T23:26:29.259Z,17.23
2019-02-15T23:29:00.371Z,17.73
2019-02-15T23:31:31.430Z,15.90
2019-02-15T23:34:02.507Z,15.60
2019-02-15T23:36:33.595Z,16.97
2019-02-15T23:39:04.853Z,14.10
2019-02-15T23:41:37.486Z,14.28
2019-02-15T23:44:08.572Z,11.33
2019-02-15T23:46:39.623Z,11.33
2019-02-15T23:49:10.713Z,14.83
2019-02-15T23:51:41.804Z,12.60
2019-02-15T23:54:12.867Z,12.88
2019-02-15T23:56:43.946Z,12.05
2019-02-15T23:59:15.030Z,13.40
